Latest Weather Observations for Adelaide Airport

IDS60901

Issued at 5:21 pm CDT Thursday 23 February 2017 (issued every 10 minutes, with the page automatically refreshed every 10 minutes)

About weather observations | Map of Adelaide area stations | Latest observations for Adelaide area | Other Formats
Station Details ID: 023034 Name: ADELAIDE AIRPORT Lat: -34.95 Lon: 138.52 Height: 2.0 m
Data from the previous 72 hours. | See also: Recent months at Adelaide Airport
Date/Time
CDT
Temp
°C
App
Temp
°C
Dew
Point
°C
Rel
Hum
%
Delta-T
°C
Wind Press
QNH
hPa
Press
MSL
hPa
Rain since
9am
mm
Dir  Spd
km/h
Gust
km/h
Spd
kts
Gust
kts
23/05:00pm 22.0 18.9 12.2 53 5.5 SW 20 28 11 15 1020.7 1020.7 0.0
23/04:30pm 22.1 18.8 11.5 51 5.9 SW 20 26 11 14 1020.9 1020.9 0.0
23/04:00pm 21.7 18.0 11.6 52 5.6 SW 22 30 12 16 1020.8 1020.8 0.0
23/03:30pm 21.5 18.1 11.2 52 5.7 SW 20 26 11 14 1020.9 1020.9 0.0
23/03:00pm 21.9 18.9 11.9 53 5.6 SW 19 26 10 14 1021.1 1021.1 0.0
23/02:30pm 21.5 18.7 12.5 56 5.1 WSW 19 24 10 13 1021.2 1021.2 0.0
23/02:00pm 21.8 18.6 11.8 53 5.6 WSW 20 30 11 16 1021.2 1021.2 0.0
23/01:30pm 21.9 18.6 11.7 52 5.7 WSW 20 28 11 15 1021.1 1021.1 0.0
23/01:00pm 21.3 18.1 11.8 54 5.3 WSW 20 28 11 15 1021.2 1021.2 0.0
23/12:30pm 21.1 18.0 11.7 55 5.2 WSW 19 28 10 15 1021.3 1021.3 0.0
23/12:00pm 20.9 17.6 11.5 55 5.2 SW 20 28 11 15 1021.6 1021.6 0.0
23/11:30am 20.7 17.6 12.1 58 4.8 SW 20 28 11 15 1021.5 1021.5 0.0
23/11:00am 20.2 17.2 12.1 59 4.5 SW 19 28 10 15 1021.6 1021.6 0.0
23/10:30am 19.7 16.6 12.3 62 4.1 SSW 20 26 11 14 1021.4 1021.4 0.0
23/10:00am 19.8 16.7 12.3 62 4.2 SSW 20 30 11 16 1020.9 1020.9 0.0
23/09:30am 19.8 16.8 12.7 63 4.0 SSW 20 30 11 16 1020.4 1020.4 0.0
23/09:00am 19.8 16.5 11.6 59 4.5 SSW 20 30 11 16 1020.1 1020.1 0.0
23/08:30am 19.4 16.6 13.2 67 3.5 SSW 20 28 11 15 1019.6 1019.6 0.0
23/08:00am 18.9 15.7 13.2 69 3.2 SSW 22 32 12 17 1019.2 1019.2 0.0
23/07:30am 18.3 15.5 13.1 71 2.9 SSW 20 32 11 17 1018.5 1018.5 0.0
23/07:00am 18.5 15.3 13.2 71 3.0 SSW 22 28 12 15 1018.2 1018.2 0.0
23/06:30am 18.8 16.7 13.7 72 2.9 SW 17 22 9 12 1017.7 1017.7 0.0
23/06:00am 19.0 15.4 14.1 73 2.8 WSW 26 33 14 18 1017.5 1017.5 0.0
23/05:30am 19.0 14.9 12.8 67 3.5 SW 26 33 14 18 1016.9 1016.9 0.0
23/05:00am 19.1 15.3 12.5 65 3.7 SW 24 30 13 16 1016.8 1016.8 0.0
23/04:30am 19.0 14.6 12.8 67 3.5 SW 28 35 15 19 1016.8 1016.8 0.0
23/04:00am 19.1 15.5 13.1 68 3.4 SW 24 30 13 16 1016.8 1016.8 0.0
23/03:30am 19.2 14.8 12.8 66 3.6 SW 28 35 15 19 1016.7 1016.7 0.0
23/03:00am 19.2 16.0 13.0 67 3.5 WSW 22 32 12 17 1016.8 1016.8 0.0
23/02:30am 19.3 16.3 12.7 65 3.7 WSW 20 30 11 16 1016.7 1016.7 0.0
23/02:00am 19.3 15.7 13.1 67 3.5 WSW 24 30 13 16 1016.8 1016.8 0.0
23/01:30am 19.3 15.5 12.3 64 3.9 WSW 24 32 13 17 1016.8 1016.8 0.0
23/01:00am 19.5 15.9 13.1 66 3.6 WSW 24 33 13 18 1016.9 1016.9 0.0
23/12:30am 19.7 15.8 14.3 71 3.1 WSW 28 33 15 18 1016.7 1016.7 0.0
23/12:00am 19.6 15.5 13.8 69 3.3 W 28 37 15 20 1016.6 1016.6 0.0
 
Date/Time
CDT
Temp
°C
App
Temp
°C
Dew
Point
°C
Rel
Hum
%
Delta-T
°C
Wind Press
QNH
hPa
Press
MSL
hPa
Rain since
9am
mm
Dir  Spd
km/h
Gust
km/h
Spd
kts
Gust
kts
22/11:30pm 19.7 15.4 13.2 66 3.7 WSW 28 35 15 19 1016.6 1016.6 0.0
22/11:00pm 19.8 14.9 12.5 62 4.1 WSW 30 35 16 19 1016.6 1016.6 0.0
22/10:30pm 20.2 16.2 13.0 63 4.1 WSW 26 33 14 18 1016.3 1016.3 0.0
22/10:00pm 20.4 16.8 13.0 62 4.2 WSW 24 33 13 18 1016.0 1016.0 0.0
22/09:30pm 20.9 16.3 12.2 57 4.9 W 28 37 15 20 1015.4 1015.4 0.0
22/09:00pm 21.0 16.4 12.3 57 4.9 W 28 37 15 20 1015.1 1015.1 0.0
22/08:30pm 21.2 16.2 12.3 57 5.0 W 30 37 16 20 1014.5 1014.5 0.0
22/08:00pm 21.6 16.5 11.8 53 5.5 W 30 39 16 21 1014.0 1014.0 0.0
22/07:30pm 22.1 16.6 12.0 52 5.7 W 32 39 17 21 1013.4 1013.4 0.0
22/07:00pm 22.8 17.1 11.1 47 6.5 W 32 44 17 24 1013.0 1013.0 0.0
22/06:30pm 23.4 18.4 11.0 45 6.9 W 28 39 15 21 1012.7 1012.7 0.0
22/06:00pm 24.0 18.3 11.1 44 7.2 W 32 39 17 21 1012.5 1012.5 0.0
22/05:30pm 24.2 18.5 11.2 44 7.3 W 32 41 17 22 1012.5 1012.5 0.0
22/05:00pm 24.4 19.2 11.5 44 7.3 W 30 37 16 20 1012.3 1012.3 0.0
22/04:30pm 24.6 19.0 10.1 40 8.0 WNW 30 37 16 20 1012.1 1012.1 0.0
22/04:00pm 24.8 19.3 10.6 40 7.9 W 30 37 16 20 1011.8 1011.8 0.0
22/03:30pm 24.0 17.8 10.2 41 7.6 WNW 33 43 18 23 1011.6 1011.6 0.0
22/03:00pm 24.7 18.4 11.2 42 7.6 WNW 35 43 19 23 1011.4 1011.4 0.0
22/02:30pm 24.7 17.7 10.0 39 8.1 WNW 37 48 20 26 1011.4 1011.4 0.0
22/02:00pm 24.9 18.4 10.3 39 8.1 W 35 44 19 24 1011.2 1011.2 0.0
22/01:30pm 24.7 20.7 13.0 48 6.8 WNW 26 33 14 18 1010.9 1010.9 0.0
22/01:00pm 26.1 22.0 10.1 36 8.9 NNW 22 32 12 17 1010.3 1010.3 0.0
22/12:30pm 24.7 22.5 13.4 49 6.6 NW 17 26 9 14 1010.4 1010.4 0.0
22/12:00pm 22.9 21.5 15.6 63 4.4 SW 17 22 9 12 1010.9 1010.9 0.0
22/11:30am 23.4 19.9 15.6 61 4.7 WSW 28 37 15 20 1011.3 1011.3 0.0
22/11:00am 23.3 18.1 16.6 66 4.1 WSW 39 52 21 28 1011.6 1011.6 0.0
22/10:53am 23.2 17.5 17.2 69 3.7 WSW 43 54 23 29 1011.5 1011.5 0.0
22/10:42am 23.9 18.8 16.7 64 4.4 W 39 57 21 31 1011.3 1011.3 0.0
22/10:34am 26.3 20.3 13.2 44 7.7 NW 37 52 20 28 1010.9 1010.9 0.0
22/10:30am 27.0 20.4 10.0 34 9.5 NNW 35 48 19 26 1010.6 1010.6 0.0
22/10:13am 27.7 19.8 6.1 25 11.3 NNW 37 56 20 30 1010.2 1010.2 0.0
22/10:00am 28.2 17.8 2.1 18 12.8 N 46 59 25 32 1009.9 1009.9 0.0
22/09:51am 28.7 20.6 1.2 17 13.3 NNW 33 59 18 32 1009.8 1009.8 0.0
22/09:30am 28.8 20.8 1.9 17 13.2 NNE 33 46 18 25 1008.5 1008.5 0.0
22/09:00am 28.0 19.8 0.4 16 13.1 NNE 33 50 18 27 1008.3 1008.3 0.0
22/08:30am 27.2 18.6 0.2 17 12.7 NNE 35 46 19 25 1008.3 1008.3 0.0
22/08:00am 25.7 17.7 0.1 18 11.9 NNE 32 39 17 21 1007.8 1007.8 0.0
22/07:30am 25.2 18.0 0.6 20 11.5 NNE 28 37 15 20 1007.5 1007.5 0.0
22/07:00am 25.3 17.7 0.4 19 11.6 NNE 30 37 16 20 1007.5 1007.5 0.0
22/06:30am 25.7 17.0 -0.3 18 12.0 NNE 35 46 19 25 1007.2 1007.1 0.0
22/06:00am 25.6 16.9 -0.6 18 12.0 NNE 35 46 19 25 1007.5 1007.5 0.0
22/05:30am 25.6 17.3 -0.6 18 12.0 NNE 33 48 18 26 1007.3 1007.2 0.0
22/05:00am 25.4 17.3 -0.6 18 11.9 NNE 32 41 17 22 1007.6 1007.6 0.0
22/04:31am 25.7 17.3 -0.8 17 12.1 NNE 33 52 18 28 1007.8 1007.8 0.0
22/04:30am 25.6 17.3 -0.6 18 12.0 NNE 33 48 18 26 1007.8 1007.8 0.0
22/04:00am 25.1 17.6 -1.3 17 11.9 NNE 28 37 15 20 1008.1 1008.1 0.0
22/03:30am 24.5 16.9 -1.9 17 11.7 NNE 28 33 15 18 1008.3 1008.3 0.0
22/03:00am 22.3 17.0 2.1 26 9.5 NNE 19 24 10 13 1009.0 1009.0 0.0
22/02:30am 21.2 16.8 4.9 34 8.0 NNE 17 19 9 10 1009.4 1009.4 0.0
22/02:00am 21.8 17.3 4.4 32 8.5 N 17 22 9 12 1009.9 1009.9 0.0
22/01:30am 22.5 18.1 4.7 31 8.8 N 17 20 9 11 1010.3 1010.3 0.0
22/01:00am 23.4 18.9 4.4 29 9.4 NNE 17 17 9 9 1010.6 1010.6 0.0
22/12:30am 24.1 19.1 3.4 26 10.1 NNE 19 24 10 13 1010.9 1010.9 0.0
22/12:00am 24.2 20.3 3.6 26 10.1 NE 13 17 7 9 1011.2 1011.2 0.0
 
Date/Time
CDT
Temp
°C
App
Temp
°C
Dew
Point
°C
Rel
Hum
%
Delta-T
°C
Wind Press
QNH
hPa
Press
MSL
hPa
Rain since
9am
mm
Dir  Spd
km/h
Gust
km/h
Spd
kts
Gust
kts
21/11:30pm 22.6 18.8 5.7 33 8.5 NE 15 15 8 8 1011.5 1011.5 0.0
21/11:00pm 21.6 18.8 8.5 43 6.9 NE 13 15 7 8 1012.0 1012.0 0.0
21/10:30pm 21.8 20.5 9.3 45 6.7 ENE 6 7 3 4 1012.5 1012.5 0.0
21/10:00pm 22.1 20.2 9.2 43 6.9 E 9 9 5 5 1012.7 1012.7 0.0
21/09:30pm 23.0 21.0 8.8 40 7.6 ENE 9 11 5 6 1012.6 1012.6 0.0
21/09:00pm 23.0 20.6 8.8 40 7.6 ESE 11 13 6 7 1012.5 1012.5 0.0
21/08:30pm 23.8 21.5 7.4 35 8.6 ESE 9 13 5 7 1012.3 1012.3 0.0
21/08:00pm 25.3 23.5 7.8 32 9.3 SW 7 7 4 4 1012.3 1012.3 0.0
21/07:30pm 25.8 23.3 6.4 29 10.1 SSW 9 11 5 6 1012.0 1012.0 0.0
21/07:00pm 27.1 24.3 6.9 27 10.7 SW 11 13 6 7 1011.8 1011.8 0.0
21/06:30pm 26.9 23.8 7.4 29 10.4 SW 13 15 7 8 1011.9 1011.9 0.0
21/06:00pm 27.2 24.3 9.5 33 9.8 WSW 15 19 8 10 1012.2 1012.2 0.0
21/05:30pm 27.6 23.9 8.0 29 10.6 SW 17 19 9 10 1012.4 1012.4 0.0
21/05:00pm 26.7 23.1 8.4 31 9.9 WSW 17 20 9 11 1012.8 1012.8 0.0
21/04:30pm 26.7 22.8 7.0 28 10.4 WSW 17 20 9 11 1013.1 1013.1 0.0
21/04:00pm 26.6 23.2 9.0 33 9.6 SW 17 22 9 12 1013.7 1013.7 0.0
21/03:30pm 26.3 22.5 7.5 30 10.0 WSW 17 22 9 12 1014.3 1014.3 0.0
21/03:00pm 27.3 23.3 9.1 31 10.0 W 20 30 11 16 1014.8 1014.8 0.0
21/02:30pm 27.6 23.6 8.2 29 10.5 W 19 28 10 15 1015.3 1015.3 0.0
21/02:00pm 26.6 22.0 8.0 30 10.0 WNW 22 30 12 16 1015.8 1015.8 0.0
21/01:30pm 26.6 23.3 7.9 30 10.0 N 15 24 8 13 1016.0 1016.0 0.0
21/01:00pm 26.5 22.0 6.0 27 10.6 NNE 19 28 10 15 1016.4 1016.4 0.0
21/12:30pm 26.1 21.6 6.2 28 10.3 NNE 19 28 10 15 1017.0 1017.0 0.0
21/12:00pm 25.2 20.5 5.3 27 10.1 N 19 26 10 14 1017.6 1017.6 0.0
21/11:30am 24.5 20.3 5.9 30 9.5 N 17 26 9 14 1018.1 1018.1 0.0
21/11:00am 23.6 18.7 4.9 29 9.3 NNE 20 28 11 15 1018.4 1018.4 0.0
21/10:30am 22.8 17.6 5.4 32 8.7 NNE 22 30 12 16 1018.4 1018.4 0.0
21/10:00am 21.6 16.9 6.1 36 7.8 NNE 20 28 11 15 1018.5 1018.5 0.0
21/09:30am 20.2 15.0 5.6 38 7.2 NE 22 28 12 15 1018.6 1018.6 0.0
21/09:00am 18.3 16.4 7.4 49 5.5 ENE 7 9 4 5 1018.9 1018.9 0.0
21/08:30am 16.0 14.9 8.5 61 3.8 ENE 4 6 2 3 1019.0 1019.0 0.0
21/08:00am 14.8 14.6 8.9 68 3.0 CALM 0 0 0 0 1018.7 1018.7 0.0
21/07:30am 12.3 11.9 8.2 76 2.0 CALM 0 11 0 6 1018.4 1018.4 0.0
21/07:00am 11.0 10.6 8.3 83 1.3 CALM 0 0 0 0 1017.7 1017.7 0.0
21/06:30am 11.1 10.7 8.4 83 1.3 CALM 0 0 0 0 1018.0 1018.0 0.0
21/06:00am 11.3 10.9 8.4 82 1.4 CALM 0 0 0 0 1017.8 1017.8 0.0
21/05:30am 12.0 11.2 8.1 77 1.9 ENE 2 9 1 5 1017.6 1017.6 0.0
21/05:00am 11.3 10.9 8.4 82 1.4 CALM 0 0 0 0 1017.8 1017.8 0.0
21/04:30am 11.5 10.0 8.4 81 1.5 E 6 7 3 4 1017.7 1017.7 0.0
21/04:00am 11.4 11.1 8.6 83 1.4 CALM 0 0 0 0 1017.8 1017.8 0.0
21/03:30am 11.5 11.1 8.4 81 1.5 CALM 0 0 0 0 1017.9 1017.9 0.0
21/03:00am 12.0 11.7 8.8 81 1.6 CALM 0 0 0 0 1018.1 1018.1 0.0
21/02:30am 12.1 11.8 8.7 80 1.7 CALM 0 0 0 0 1018.2 1018.2 0.0
21/02:00am 12.4 12.0 8.3 76 2.0 CALM 0 0 0 0 1018.5 1018.5 0.0
21/01:30am 13.3 12.9 8.3 72 2.5 CALM 0 0 0 0 1018.5 1018.5 0.0
21/01:00am 13.7 12.7 8.7 72 2.5 ESE 4 7 2 4 1018.6 1018.6 0.0
21/12:30am 14.1 12.0 8.1 67 3.0 ESE 9 11 5 6 1018.9 1018.9 0.0
21/12:00am 14.3 10.9 7.8 65 3.2 ESE 15 19 8 10 1019.3 1019.3 0.0
 
Date/Time
CDT
Temp
°C
App
Temp
°C
Dew
Point
°C
Rel
Hum
%
Delta-T
°C
Wind Press
QNH
hPa
Press
MSL
hPa
Rain since
9am
mm
Dir  Spd
km/h
Gust
km/h
Spd
kts
Gust
kts
20/11:30pm 15.0 11.1 7.3 60 3.8 ESE 17 20 9 11 1019.2 1019.2 0.0
20/11:00pm 14.8 11.3 7.0 59 3.8 SE 15 22 8 12 1019.4 1019.4 0.0
20/10:30pm 15.5 12.2 6.4 54 4.4 SE 13 19 7 10 1019.4 1019.4 0.0
20/10:00pm 15.6 12.3 6.6 55 4.4 SSE 13 17 7 9 1019.3 1019.3 0.0
20/09:30pm 16.0 12.0 6.6 53 4.6 SE 17 22 9 12 1019.1 1019.1 0.0
20/09:00pm 16.5 11.9 6.5 51 4.9 SSE 20 28 11 15 1018.9 1018.9 0.0
20/08:30pm 17.3 12.8 7.0 50 5.1 SSE 20 28 11 15 1018.6 1018.6 0.0
20/08:00pm 18.3 13.8 7.1 48 5.6 SSE 20 28 11 15 1018.2 1018.2 0.0
20/07:30pm 19.6 14.8 8.9 50 5.6 SW 24 32 13 17 1017.6 1017.6 0.0
20/07:00pm 19.7 14.9 8.8 49 5.7 SW 24 30 13 16 1017.3 1017.3 0.0
20/06:30pm 19.7 14.9 7.3 44 6.3 SW 22 30 12 16 1017.1 1017.1 0.0
20/06:00pm 19.7 14.8 7.0 43 6.4 SW 22 32 12 17 1017.0 1017.0 0.0
20/05:30pm 20.4 15.2 7.3 42 6.7 SW 24 28 13 15 1017.1 1017.1 0.0

Latest Capital City Observations: Canberra | Sydney | Melbourne | Brisbane | Adelaide | Perth | Hobart | Darwin

Other Formats:

Comma delimited format used in spreadsheet applications
http://www.bom.gov.au/fwo/IDS60901/IDS60901.94672.axf

JavaScript Object Notation format (JSON) in row-major order
http://www.bom.gov.au/fwo/IDS60901/IDS60901.94672.json